sensor_id;sensor_type;location;lat;lon;timestamp;temperature;humidity
24224;DHT22;12359;49.716;9.212;2023-11-21T00:02:21;9.50;28.70
24224;DHT22;12359;49.716;9.212;2023-11-21T00:04:48;9.50;28.30
24224;DHT22;12359;49.716;9.212;2023-11-21T00:07:13;9.40;26.40
24224;DHT22;12359;49.716;9.212;2023-11-21T00:09:40;9.50;28.70
24224;DHT22;12359;49.716;9.212;2023-11-21T00:12:07;9.40;27.80
24224;DHT22;12359;49.716;9.212;2023-11-21T00:14:36;9.40;28.60
24224;DHT22;12359;49.716;9.212;2023-11-21T00:17:02;9.40;33.40
24224;DHT22;12359;49.716;9.212;2023-11-21T00:19:28;9.40;36.80
24224;DHT22;12359;49.716;9.212;2023-11-21T00:21:54;9.40;36.00
24224;DHT22;12359;49.716;9.212;2023-11-21T00:24:19;9.40;35.10
24224;DHT22;12359;49.716;9.212;2023-11-21T00:26:45;9.40;36.50
24224;DHT22;12359;49.716;9.212;2023-11-21T00:29:11;9.40;38.70
24224;DHT22;12359;49.716;9.212;2023-11-21T00:31:37;9.40;35.30
24224;DHT22;12359;49.716;9.212;2023-11-21T00:34:04;9.40;36.70
24224;DHT22;12359;49.716;9.212;2023-11-21T00:36:31;9.40;36.10
24224;DHT22;12359;49.716;9.212;2023-11-21T00:38:57;9.30;36.80
24224;DHT22;12359;49.716;9.212;2023-11-21T00:41:23;9.30;39.60
24224;DHT22;12359;49.716;9.212;2023-11-21T00:43:49;9.30;41.20
24224;DHT22;12359;49.716;9.212;2023-11-21T00:46:14;9.30;39.80
24224;DHT22;12359;49.716;9.212;2023-11-21T00:48:40;9.40;41.20
24224;DHT22;12359;49.716;9.212;2023-11-21T00:51:06;9.40;37.30
24224;DHT22;12359;49.716;9.212;2023-11-21T00:53:32;9.40;37.50
24224;DHT22;12359;49.716;9.212;2023-11-21T00:55:58;9.40;38.00
24224;DHT22;12359;49.716;9.212;2023-11-21T00:58:24;9.40;36.50
24224;DHT22;12359;49.716;9.212;2023-11-21T01:00:50;9.40;39.50
24224;DHT22;12359;49.716;9.212;2023-11-21T01:03:15;9.50;35.70
24224;DHT22;12359;49.716;9.212;2023-11-21T01:05:41;9.50;37.00
24224;DHT22;12359;49.716;9.212;2023-11-21T01:08:07;9.40;27.70
24224;DHT22;12359;49.716;9.212;2023-11-21T01:10:32;9.40;32.80
24224;DHT22;12359;49.716;9.212;2023-11-21T01:13:00;9.40;32.80
24224;DHT22;12359;49.716;9.212;2023-11-21T01:15:25;9.40;35.00
24224;DHT22;12359;49.716;9.212;2023-11-21T01:17:53;9.40;38.10
24224;DHT22;12359;49.716;9.212;2023-11-21T01:20:19;9.30;39.10
24224;DHT22;12359;49.716;9.212;2023-11-21T01:22:45;9.30;40.90
24224;DHT22;12359;49.716;9.212;2023-11-21T01:25:10;9.40;42.10
24224;DHT22;12359;49.716;9.212;2023-11-21T01:27:36;9.30;43.20
24224;DHT22;12359;49.716;9.212;2023-11-21T01:30:03;9.40;46.30
24224;DHT22;12359;49.716;9.212;2023-11-21T01:32:30;9.40;49.10
24224;DHT22;12359;49.716;9.212;2023-11-21T01:34:55;9.40;44.80
24224;DHT22;12359;49.716;9.212;2023-11-21T01:37:21;9.40;46.80
24224;DHT22;12359;49.716;9.212;2023-11-21T01:39:48;9.30;46.50
24224;DHT22;12359;49.716;9.212;2023-11-21T01:42:13;9.30;47.20
24224;DHT22;12359;49.716;9.212;2023-11-21T01:44:39;9.30;50.80
24224;DHT22;12359;49.716;9.212;2023-11-21T01:47:06;9.40;53.60
24224;DHT22;12359;49.716;9.212;2023-11-21T01:49:35;9.40;54.30
24224;DHT22;12359;49.716;9.212;2023-11-21T01:52:01;9.40;54.30
24224;DHT22;12359;49.716;9.212;2023-11-21T01:54:27;9.40;54.80
24224;DHT22;12359;49.716;9.212;2023-11-21T01:56:58;9.40;56.50
24224;DHT22;12359;49.716;9.212;2023-11-21T01:59:34;9.40;55.70
24224;DHT22;12359;49.716;9.212;2023-11-21T02:02:00;9.40;57.40
24224;DHT22;12359;49.716;9.212;2023-11-21T02:04:25;9.40;56.50
24224;DHT22;12359;49.716;9.212;2023-11-21T02:06:51;9.50;56.90
24224;DHT22;12359;49.716;9.212;2023-11-21T02:09:22;9.50;58.50
24224;DHT22;12359;49.716;9.212;2023-11-21T02:11:48;9.50;59.90
24224;DHT22;12359;49.716;9.212;2023-11-21T02:14:14;9.50;58.00
24224;DHT22;12359;49.716;9.212;2023-11-21T02:16:40;9.40;59.70
24224;DHT22;12359;49.716;9.212;2023-11-21T02:19:07;9.40;60.10
24224;DHT22;12359;49.716;9.212;2023-11-21T02:21:36;9.30;58.40
24224;DHT22;12359;49.716;9.212;2023-11-21T02:24:06;9.30;72.40
24224;DHT22;12359;49.716;9.212;2023-11-21T02:26:32;9.30;70.50
24224;DHT22;12359;49.716;9.212;2023-11-21T02:28:57;9.30;71.20
24224;DHT22;12359;49.716;9.212;2023-11-21T02:31:23;9.30;71.80
24224;DHT22;12359;49.716;9.212;2023-11-21T02:33:49;9.40;70.50
24224;DHT22;12359;49.716;9.212;2023-11-21T02:36:15;9.40;71.30
24224;DHT22;12359;49.716;9.212;2023-11-21T02:38:40;9.40;73.60
24224;DHT22;12359;49.716;9.212;2023-11-21T02:41:06;9.50;71.40
24224;DHT22;12359;49.716;9.212;2023-11-21T02:43:32;9.50;72.20
24224;DHT22;12359;49.716;9.212;2023-11-21T02:45:57;9.40;67.50
24224;DHT22;12359;49.716;9.212;2023-11-21T02:48:23;9.50;71.10
24224;DHT22;12359;49.716;9.212;2023-11-21T02:50:51;9.50;71.30
24224;DHT22;12359;49.716;9.212;2023-11-21T02:53:18;9.40;67.10
24224;DHT22;12359;49.716;9.212;2023-11-21T02:55:44;9.40;67.20
24224;DHT22;12359;49.716;9.212;2023-11-21T02:58:09;9.40;71.40
24224;DHT22;12359;49.716;9.212;2023-11-21T03:00:35;9.30;72.90
24224;DHT22;12359;49.716;9.212;2023-11-21T03:03:01;9.20;76.50
24224;DHT22;12359;49.716;9.212;2023-11-21T03:05:26;9.20;82.10
24224;DHT22;12359;49.716;9.212;2023-11-21T03:07:54;9.20;86.50
24224;DHT22;12359;49.716;9.212;2023-11-21T03:10:19;9.20;87.20
24224;DHT22;12359;49.716;9.212;2023-11-21T03:12:45;9.20;86.70
24224;DHT22;12359;49.716;9.212;2023-11-21T03:15:11;9.20;82.70
24224;DHT22;12359;49.716;9.212;2023-11-21T03:17:36;9.20;84.20
24224;DHT22;12359;49.716;9.212;2023-11-21T03:20:03;9.20;84.50
24224;DHT22;12359;49.716;9.212;2023-11-21T03:22:29;9.10;86.40
24224;DHT22;12359;49.716;9.212;2023-11-21T03:24:55;9.10;88.80
24224;DHT22;12359;49.716;9.212;2023-11-21T03:27:21;9.10;87.10
24224;DHT22;12359;49.716;9.212;2023-11-21T03:29:48;9.00;89.10
24224;DHT22;12359;49.716;9.212;2023-11-21T03:32:14;9.00;90.40
24224;DHT22;12359;49.716;9.212;2023-11-21T03:34:58;9.00;91.30
24224;DHT22;12359;49.716;9.212;2023-11-21T03:37:24;9.00;91.70
24224;DHT22;12359;49.716;9.212;2023-11-21T03:39:50;9.00;92.20
24224;DHT22;12359;49.716;9.212;2023-11-21T03:42:16;9.00;91.60
24224;DHT22;12359;49.716;9.212;2023-11-21T03:44:42;9.00;91.10
24224;DHT22;12359;49.716;9.212;2023-11-21T03:47:07;9.10;91.40
24224;DHT22;12359;49.716;9.212;2023-11-21T03:49:33;9.10;91.60
24224;DHT22;12359;49.716;9.212;2023-11-21T03:51:59;9.20;91.60
24224;DHT22;12359;49.716;9.212;2023-11-21T03:54:24;9.20;90.70
24224;DHT22;12359;49.716;9.212;2023-11-21T03:56:50;9.20;89.20
24224;DHT22;12359;49.716;9.212;2023-11-21T03:59:16;9.30;90.20
24224;DHT22;12359;49.716;9.212;2023-11-21T04:01:41;9.30;88.80
24224;DHT22;12359;49.716;9.212;2023-11-21T04:04:07;9.30;86.60
24224;DHT22;12359;49.716;9.212;2023-11-21T04:06:33;9.30;88.60
24224;DHT22;12359;49.716;9.212;2023-11-21T04:08:58;9.40;87.80
24224;DHT22;12359;49.716;9.212;2023-11-21T04:11:24;9.40;86.50
24224;DHT22;12359;49.716;9.212;2023-11-21T04:13:50;9.40;85.80
24224;DHT22;12359;49.716;9.212;2023-11-21T04:16:15;9.30;85.60
24224;DHT22;12359;49.716;9.212;2023-11-21T04:18:41;9.40;85.70
24224;DHT22;12359;49.716;9.212;2023-11-21T04:21:07;9.30;83.70
24224;DHT22;12359;49.716;9.212;2023-11-21T04:23:34;9.30;85.20
24224;DHT22;12359;49.716;9.212;2023-11-21T04:26:00;9.30;83.20
24224;DHT22;12359;49.716;9.212;2023-11-21T04:28:27;9.30;86.30
24224;DHT22;12359;49.716;9.212;2023-11-21T04:30:53;9.40;87.30
24224;DHT22;12359;49.716;9.212;2023-11-21T04:33:19;9.30;84.60
24224;DHT22;12359;49.716;9.212;2023-11-21T04:35:45;9.30;84.40
24224;DHT22;12359;49.716;9.212;2023-11-21T04:38:11;9.20;83.80
24224;DHT22;12359;49.716;9.212;2023-11-21T04:40:37;9.30;84.60
24224;DHT22;12359;49.716;9.212;2023-11-21T04:43:03;9.20;83.90
24224;DHT22;12359;49.716;9.212;2023-11-21T04:45:29;9.20;90.00
24224;DHT22;12359;49.716;9.212;2023-11-21T04:47:55;9.20;90.00
24224;DHT22;12359;49.716;9.212;2023-11-21T04:50:21;9.30;90.40
24224;DHT22;12359;49.716;9.212;2023-11-21T04:52:47;9.30;90.70
24224;DHT22;12359;49.716;9.212;2023-11-21T04:55:13;9.40;90.30
24224;DHT22;12359;49.716;9.212;2023-11-21T04:57:39;9.40;89.50
24224;DHT22;12359;49.716;9.212;2023-11-21T05:00:09;9.40;88.60
24224;DHT22;12359;49.716;9.212;2023-11-21T05:02:35;9.40;88.60
24224;DHT22;12359;49.716;9.212;2023-11-21T05:05:01;9.40;88.70
24224;DHT22;12359;49.716;9.212;2023-11-21T05:07:27;9.40;88.20
24224;DHT22;12359;49.716;9.212;2023-11-21T05:09:55;9.50;88.60
24224;DHT22;12359;49.716;9.212;2023-11-21T05:12:24;9.50;87.90
24224;DHT22;12359;49.716;9.212;2023-11-21T05:14:51;9.50;87.50
24224;DHT22;12359;49.716;9.212;2023-11-21T05:17:16;9.50;86.30
24224;DHT22;12359;49.716;9.212;2023-11-21T05:19:42;9.40;82.50
24224;DHT22;12359;49.716;9.212;2023-11-21T05:22:11;9.40;83.40
24224;DHT22;12359;49.716;9.212;2023-11-21T05:24:37;9.50;87.30
24224;DHT22;12359;49.716;9.212;2023-11-21T05:27:04;9.50;87.30
24224;DHT22;12359;49.716;9.212;2023-11-21T05:29:30;9.50;88.20
24224;DHT22;12359;49.716;9.212;2023-11-21T05:31:56;9.50;87.30
24224;DHT22;12359;49.716;9.212;2023-11-21T05:34:22;9.50;86.50
24224;DHT22;12359;49.716;9.212;2023-11-21T05:36:50;9.50;85.10
24224;DHT22;12359;49.716;9.212;2023-11-21T05:39:16;9.60;85.50
24224;DHT22;12359;49.716;9.212;2023-11-21T05:41:45;9.50;84.70
24224;DHT22;12359;49.716;9.212;2023-11-21T05:44:11;9.60;84.30
24224;DHT22;12359;49.716;9.212;2023-11-21T05:46:37;9.50;84.00
24224;DHT22;12359;49.716;9.212;2023-11-21T05:49:03;9.50;83.10
24224;DHT22;12359;49.716;9.212;2023-11-21T05:51:29;9.50;83.40
24224;DHT22;12359;49.716;9.212;2023-11-21T05:53:54;9.50;80.90
24224;DHT22;12359;49.716;9.212;2023-11-21T05:56:20;9.50;81.60
24224;DHT22;12359;49.716;9.212;2023-11-21T05:58:46;9.50;81.60
24224;DHT22;12359;49.716;9.212;2023-11-21T06:01:11;9.50;83.00
24224;DHT22;12359;49.716;9.212;2023-11-21T06:03:38;9.60;82.70
24224;DHT22;12359;49.716;9.212;2023-11-21T06:06:04;9.50;82.40
24224;DHT22;12359;49.716;9.212;2023-11-21T06:08:30;9.50;81.90
24224;DHT22;12359;49.716;9.212;2023-11-21T06:10:56;9.50;81.80
24224;DHT22;12359;49.716;9.212;2023-11-21T06:13:21;9.50;82.40
24224;DHT22;12359;49.716;9.212;2023-11-21T06:15:50;9.50;80.80
24224;DHT22;12359;49.716;9.212;2023-11-21T06:18:17;9.50;80.10
24224;DHT22;12359;49.716;9.212;2023-11-21T06:20:45;9.50;80.40
24224;DHT22;12359;49.716;9.212;2023-11-21T06:23:11;9.40;81.40
24224;DHT22;12359;49.716;9.212;2023-11-21T06:25:36;9.40;80.40
24224;DHT22;12359;49.716;9.212;2023-11-21T06:28:02;9.40;79.20
24224;DHT22;12359;49.716;9.212;2023-11-21T06:30:28;9.40;82.20
24224;DHT22;12359;49.716;9.212;2023-11-21T06:32:54;9.40;83.40
24224;DHT22;12359;49.716;9.212;2023-11-21T06:35:20;9.50;85.10
24224;DHT22;12359;49.716;9.212;2023-11-21T06:37:46;9.50;84.60
24224;DHT22;12359;49.716;9.212;2023-11-21T06:40:13;9.50;84.30
24224;DHT22;12359;49.716;9.212;2023-11-21T06:42:43;9.50;84.70
24224;DHT22;12359;49.716;9.212;2023-11-21T06:45:10;9.50;84.00
24224;DHT22;12359;49.716;9.212;2023-11-21T06:47:37;9.50;84.40
24224;DHT22;12359;49.716;9.212;2023-11-21T06:50:04;9.50;83.00
24224;DHT22;12359;49.716;9.212;2023-11-21T06:52:29;9.50;87.20
24224;DHT22;12359;49.716;9.212;2023-11-21T06:54:55;9.50;89.00
24224;DHT22;12359;49.716;9.212;2023-11-21T06:57:23;9.50;88.00
24224;DHT22;12359;49.716;9.212;2023-11-21T06:59:48;9.50;87.10
24224;DHT22;12359;49.716;9.212;2023-11-21T07:02:16;9.50;82.60
24224;DHT22;12359;49.716;9.212;2023-11-21T07:04:46;9.40;83.50
24224;DHT22;12359;49.716;9.212;2023-11-21T07:07:12;9.40;85.60
24224;DHT22;12359;49.716;9.212;2023-11-21T07:09:38;9.40;84.40
24224;DHT22;12359;49.716;9.212;2023-11-21T07:12:05;9.40;86.30
24224;DHT22;12359;49.716;9.212;2023-11-21T07:14:33;9.40;85.80
24224;DHT22;12359;49.716;9.212;2023-11-21T07:16:59;9.40;87.70
24224;DHT22;12359;49.716;9.212;2023-11-21T07:19:25;9.40;87.70
24224;DHT22;12359;49.716;9.212;2023-11-21T07:21:50;9.40;89.20
24224;DHT22;12359;49.716;9.212;2023-11-21T07:24:17;9.50;87.80
24224;DHT22;12359;49.716;9.212;2023-11-21T07:26:43;9.50;88.50
24224;DHT22;12359;49.716;9.212;2023-11-21T07:29:08;9.50;88.20
24224;DHT22;12359;49.716;9.212;2023-11-21T07:31:34;9.50;88.80
24224;DHT22;12359;49.716;9.212;2023-11-21T07:34:00;9.50;89.20
24224;DHT22;12359;49.716;9.212;2023-11-21T07:36:26;9.60;88.20
24224;DHT22;12359;49.716;9.212;2023-11-21T07:38:52;9.60;88.10
24224;DHT22;12359;49.716;9.212;2023-11-21T07:41:18;9.60;88.20
24224;DHT22;12359;49.716;9.212;2023-11-21T07:43:44;9.70;88.90
24224;DHT22;12359;49.716;9.212;2023-11-21T07:46:11;9.70;88.30
24224;DHT22;12359;49.716;9.212;2023-11-21T07:48:38;9.80;87.30
24224;DHT22;12359;49.716;9.212;2023-11-21T07:51:04;9.80;86.00
24224;DHT22;12359;49.716;9.212;2023-11-21T07:53:30;9.80;86.20
24224;DHT22;12359;49.716;9.212;2023-11-21T07:55:57;9.80;83.10
24224;DHT22;12359;49.716;9.212;2023-11-21T07:58:23;9.80;81.70
24224;DHT22;12359;49.716;9.212;2023-11-21T08:00:50;9.80;77.40
24224;DHT22;12359;49.716;9.212;2023-11-21T08:03:16;9.90;78.40
24224;DHT22;12359;49.716;9.212;2023-11-21T08:05:42;9.90;78.70
24224;DHT22;12359;49.716;9.212;2023-11-21T08:08:08;9.80;78.90
24224;DHT22;12359;49.716;9.212;2023-11-21T08:10:34;9.90;78.30
24224;DHT22;12359;49.716;9.212;2023-11-21T08:13:01;9.90;72.20
24224;DHT22;12359;49.716;9.212;2023-11-21T08:15:27;9.90;77.20
24224;DHT22;12359;49.716;9.212;2023-11-21T08:17:52;10.00;81.00
24224;DHT22;12359;49.716;9.212;2023-11-21T08:20:19;10.00;77.70
24224;DHT22;12359;49.716;9.212;2023-11-21T08:22:45;10.10;77.60
24224;DHT22;12359;49.716;9.212;2023-11-21T08:25:13;10.10;73.60
24224;DHT22;12359;49.716;9.212;2023-11-21T08:27:38;10.20;70.20
24224;DHT22;12359;49.716;9.212;2023-11-21T08:30:04;10.20;72.00
24224;DHT22;12359;49.716;9.212;2023-11-21T08:32:30;10.20;73.30
24224;DHT22;12359;49.716;9.212;2023-11-21T08:34:58;10.30;70.10
24224;DHT22;12359;49.716;9.212;2023-11-21T08:37:24;10.30;66.90
24224;DHT22;12359;49.716;9.212;2023-11-21T08:39:53;10.30;68.40
24224;DHT22;12359;49.716;9.212;2023-11-21T08:42:19;10.30;64.10
24224;DHT22;12359;49.716;9.212;2023-11-21T08:44:45;10.30;65.50
24224;DHT22;12359;49.716;9.212;2023-11-21T08:47:11;10.40;66.50
24224;DHT22;12359;49.716;9.212;2023-11-21T08:49:37;10.30;58.90
24224;DHT22;12359;49.716;9.212;2023-11-21T08:52:04;10.30;60.70
24224;DHT22;12359;49.716;9.212;2023-11-21T08:54:30;10.30;60.10
24224;DHT22;12359;49.716;9.212;2023-11-21T08:56:56;10.30;60.00
24224;DHT22;12359;49.716;9.212;2023-11-21T08:59:24;10.40;61.60
24224;DHT22;12359;49.716;9.212;2023-11-21T09:01:50;10.40;61.10
24224;DHT22;12359;49.716;9.212;2023-11-21T09:04:16;10.40;54.20
24224;DHT22;12359;49.716;9.212;2023-11-21T09:06:42;10.40;56.10
24224;DHT22;12359;49.716;9.212;2023-11-21T09:09:07;10.40;54.40
24224;DHT22;12359;49.716;9.212;2023-11-21T09:11:36;10.40;54.60
24224;DHT22;12359;49.716;9.212;2023-11-21T09:14:02;10.50;57.00
24224;DHT22;12359;49.716;9.212;2023-11-21T09:16:28;10.40;53.30
24224;DHT22;12359;49.716;9.212;2023-11-21T09:18:54;10.50;55.00
24224;DHT22;12359;49.716;9.212;2023-11-21T09:21:20;10.50;51.10
24224;DHT22;12359;49.716;9.212;2023-11-21T09:23:46;10.60;56.10
24224;DHT22;12359;49.716;9.212;2023-11-21T09:26:12;10.70;57.20
24224;DHT22;12359;49.716;9.212;2023-11-21T09:28:38;10.80;57.30
24224;DHT22;12359;49.716;9.212;2023-11-21T09:31:05;11.00;49.40
24224;DHT22;12359;49.716;9.212;2023-11-21T09:33:34;11.00;47.20
24224;DHT22;12359;49.716;9.212;2023-11-21T09:35:59;11.10;44.00
24224;DHT22;12359;49.716;9.212;2023-11-21T09:38:25;11.30;45.60
24224;DHT22;12359;49.716;9.212;2023-11-21T09:40:51;11.30;39.60
24224;DHT22;12359;49.716;9.212;2023-11-21T09:43:19;11.40;33.40
24224;DHT22;12359;49.716;9.212;2023-11-21T09:45:54;11.30;28.70
24224;DHT22;12359;49.716;9.212;2023-11-21T09:48:23;11.30;19.90
24224;DHT22;12359;49.716;9.212;2023-11-21T09:50:50;11.30;27.80
24224;DHT22;12359;49.716;9.212;2023-11-21T09:53:22;11.30;27.30
24224;DHT22;12359;49.716;9.212;2023-11-21T09:55:51;11.30;30.10
24224;DHT22;12359;49.716;9.212;2023-11-21T09:58:18;11.20;24.00
24224;DHT22;12359;49.716;9.212;2023-11-21T10:00:46;11.10;20.40
24224;DHT22;12359;49.716;9.212;2023-11-21T10:03:12;11.10;23.10
24224;DHT22;12359;49.716;9.212;2023-11-21T10:05:39;11.00;21.40
24224;DHT22;12359;49.716;9.212;2023-11-21T10:08:10;10.90;24.80
24224;DHT22;12359;49.716;9.212;2023-11-21T10:10:37;10.90;27.80
24224;DHT22;12359;49.716;9.212;2023-11-21T10:13:05;10.90;33.00
24224;DHT22;12359;49.716;9.212;2023-11-21T10:15:34;10.90;37.00
24224;DHT22;12359;49.716;9.212;2023-11-21T10:18:05;10.80;34.40
24224;DHT22;12359;49.716;9.212;2023-11-21T10:20:32;10.80;38.30
24224;DHT22;12359;49.716;9.212;2023-11-21T10:23:03;10.70;47.10
24224;DHT22;12359;49.716;9.212;2023-11-21T10:25:30;10.80;54.20
24224;DHT22;12359;49.716;9.212;2023-11-21T10:28:02;10.90;49.10
24224;DHT22;12359;49.716;9.212;2023-11-21T10:30:34;10.90;43.10
24224;DHT22;12359;49.716;9.212;2023-11-21T10:33:07;10.90;41.60
24224;DHT22;12359;49.716;9.212;2023-11-21T10:35:48;10.90;44.50
24224;DHT22;12359;49.716;9.212;2023-11-21T10:38:19;11.00;41.20
24224;DHT22;12359;49.716;9.212;2023-11-21T10:40:48;10.90;34.70
24224;DHT22;12359;49.716;9.212;2023-11-21T10:43:15;10.80;36.60
24224;DHT22;12359;49.716;9.212;2023-11-21T10:45:42;10.80;40.30
24224;DHT22;12359;49.716;9.212;2023-11-21T10:48:14;10.80;45.00
24224;DHT22;12359;49.716;9.212;2023-11-21T10:50:41;10.90;46.50
24224;DHT22;12359;49.716;9.212;2023-11-21T10:53:07;11.00;46.20
24224;DHT22;12359;49.716;9.212;2023-11-21T10:55:34;11.00;40.80
24224;DHT22;12359;49.716;9.212;2023-11-21T10:58:01;11.10;41.40
24224;DHT22;12359;49.716;9.212;2023-11-21T11:00:29;11.10;35.20
24224;DHT22;12359;49.716;9.212;2023-11-21T11:02:55;11.10;38.00
24224;DHT22;12359;49.716;9.212;2023-11-21T11:05:23;11.20;39.60
24224;DHT22;12359;49.716;9.212;2023-11-21T11:07:58;11.10;31.00
24224;DHT22;12359;49.716;9.212;2023-11-21T11:10:27;11.10;35.40
24224;DHT22;12359;49.716;9.212;2023-11-21T11:12:55;11.10;35.00
24224;DHT22;12359;49.716;9.212;2023-11-21T11:15:21;11.10;35.70
24224;DHT22;12359;49.716;9.212;2023-11-21T11:17:48;11.10;28.50
24224;DHT22;12359;49.716;9.212;2023-11-21T11:20:15;11.10;31.90
24224;DHT22;12359;49.716;9.212;2023-11-21T11:28:07;11.30;34.60
24224;DHT22;12359;49.716;9.212;2023-11-21T11:33:36;11.40;29.30
24224;DHT22;12359;49.716;9.212;2023-11-21T11:38:34;11.50;28.70
24224;DHT22;12359;49.716;9.212;2023-11-21T11:41:07;11.50;27.70
24224;DHT22;12359;49.716;9.212;2023-11-21T11:43:34;11.60;27.20
24224;DHT22;12359;49.716;9.212;2023-11-21T11:46:10;11.60;17.10
24224;DHT22;12359;49.716;9.212;2023-11-21T11:48:39;11.60;16.70
24224;DHT22;12359;49.716;9.212;2023-11-21T11:51:10;11.60;18.90
24224;DHT22;12359;49.716;9.212;2023-11-21T11:53:44;11.70;16.80
24224;DHT22;12359;49.716;9.212;2023-11-21T11:58:47;11.90;14.60
24224;DHT22;12359;49.716;9.212;2023-11-21T12:01:13;12.00;14.10
24224;DHT22;12359;49.716;9.212;2023-11-21T12:03:39;12.40;8.20
24224;DHT22;12359;49.716;9.212;2023-11-21T12:06:05;12.50;1.00
24224;DHT22;12359;49.716;9.212;2023-11-21T12:08:32;12.60;1.00
24224;DHT22;12359;49.716;9.212;2023-11-21T12:10:58;12.70;1.00
24224;DHT22;12359;49.716;9.212;2023-11-21T12:13:24;12.60;1.00
24224;DHT22;12359;49.716;9.212;2023-11-21T12:15:50;12.50;1.00
24224;DHT22;12359;49.716;9.212;2023-11-21T12:18:16;12.30;1.00
24224;DHT22;12359;49.716;9.212;2023-11-21T12:20:41;12.10;1.00
24224;DHT22;12359;49.716;9.212;2023-11-21T12:23:08;12.00;1.00
24224;DHT22;12359;49.716;9.212;2023-11-21T12:25:37;11.80;1.00
24224;DHT22;12359;49.716;9.212;2023-11-21T12:28:02;11.60;1.00
24224;DHT22;12359;49.716;9.212;2023-11-21T12:30:29;11.50;1.00
24224;DHT22;12359;49.716;9.212;2023-11-21T12:33:00;11.40;1.00
24224;DHT22;12359;49.716;9.212;2023-11-21T12:35:27;11.30;1.00
24224;DHT22;12359;49.716;9.212;2023-11-21T12:37:55;11.40;13.50
24224;DHT22;12359;49.716;9.212;2023-11-21T12:40:24;11.50;14.30
24224;DHT22;12359;49.716;9.212;2023-11-21T12:42:56;11.70;11.60
24224;DHT22;12359;49.716;9.212;2023-11-21T12:45:26;11.90;6.80
24224;DHT22;12359;49.716;9.212;2023-11-21T12:47:59;12.10;1.00
24224;DHT22;12359;49.716;9.212;2023-11-21T12:50:27;12.10;1.00
24224;DHT22;12359;49.716;9.212;2023-11-21T12:53:01;12.20;1.00
24224;DHT22;12359;49.716;9.212;2023-11-21T12:55:33;12.10;1.00
24224;DHT22;12359;49.716;9.212;2023-11-21T12:58:01;12.10;1.00
24224;DHT22;12359;49.716;9.212;2023-11-21T13:00:45;12.00;1.00
24224;DHT22;12359;49.716;9.212;2023-11-21T13:03:14;12.00;1.00
24224;DHT22;12359;49.716;9.212;2023-11-21T13:05:51;12.00;1.00
24224;DHT22;12359;49.716;9.212;2023-11-21T13:08:21;12.10;1.00
24224;DHT22;12359;49.716;9.212;2023-11-21T13:10:53;12.20;1.00
24224;DHT22;12359;49.716;9.212;2023-11-21T13:13:19;12.30;1.00
24224;DHT22;12359;49.716;9.212;2023-11-21T13:15:54;12.20;1.00
24224;DHT22;12359;49.716;9.212;2023-11-21T13:18:23;12.10;1.00
24224;DHT22;12359;49.716;9.212;2023-11-21T13:20:50;12.00;1.00
24224;DHT22;12359;49.716;9.212;2023-11-21T13:23:16;11.90;1.00
24224;DHT22;12359;49.716;9.212;2023-11-21T13:25:45;11.80;1.00
24224;DHT22;12359;49.716;9.212;2023-11-21T13:28:12;11.70;1.00
24224;DHT22;12359;49.716;9.212;2023-11-21T13:30:40;11.60;1.00
24224;DHT22;12359;49.716;9.212;2023-11-21T13:33:07;11.60;1.00
24224;DHT22;12359;49.716;9.212;2023-11-21T13:35:43;11.50;1.00
24224;DHT22;12359;49.716;9.212;2023-11-21T13:38:14;11.50;1.00
24224;DHT22;12359;49.716;9.212;2023-11-21T13:40:48;11.40;1.00
24224;DHT22;12359;49.716;9.212;2023-11-21T13:43:17;11.40;1.00
24224;DHT22;12359;49.716;9.212;2023-11-21T13:45:46;11.40;1.00
24224;DHT22;12359;49.716;9.212;2023-11-21T13:48:13;11.30;1.00
24224;DHT22;12359;49.716;9.212;2023-11-21T13:50:47;11.30;1.00
24224;DHT22;12359;49.716;9.212;2023-11-21T13:53:36;11.20;1.00
24224;DHT22;12359;49.716;9.212;2023-11-21T13:56:03;11.20;1.00
24224;DHT22;12359;49.716;9.212;2023-11-21T13:58:29;11.20;1.00
24224;DHT22;12359;49.716;9.212;2023-11-21T14:01:13;11.10;1.00
24224;DHT22;12359;49.716;9.212;2023-11-21T14:03:58;11.10;1.00
24224;DHT22;12359;49.716;9.212;2023-11-21T14:06:34;11.10;1.00
24224;DHT22;12359;49.716;9.212;2023-11-21T14:09:05;11.10;1.00
24224;DHT22;12359;49.716;9.212;2023-11-21T14:11:32;11.10;1.00
24224;DHT22;12359;49.716;9.212;2023-11-21T14:13:59;11.00;1.00
24224;DHT22;12359;49.716;9.212;2023-11-21T14:16:25;11.00;1.00
24224;DHT22;12359;49.716;9.212;2023-11-21T14:18:51;11.00;1.00
24224;DHT22;12359;49.716;9.212;2023-11-21T14:21:29;11.00;1.00
24224;DHT22;12359;49.716;9.212;2023-11-21T14:23:55;11.00;1.00
24224;DHT22;12359;49.716;9.212;2023-11-21T14:26:21;11.00;1.00
24224;DHT22;12359;49.716;9.212;2023-11-21T14:28:50;10.90;1.00
24224;DHT22;12359;49.716;9.212;2023-11-21T14:31:16;10.90;1.00
24224;DHT22;12359;49.716;9.212;2023-11-21T14:33:44;10.90;1.00
24224;DHT22;12359;49.716;9.212;2023-11-21T14:36:09;10.90;1.00
24224;DHT22;12359;49.716;9.212;2023-11-21T14:38:38;10.90;1.00
24224;DHT22;12359;49.716;9.212;2023-11-21T14:41:08;10.90;1.00
24224;DHT22;12359;49.716;9.212;2023-11-21T14:43:35;10.80;1.00
24224;DHT22;12359;49.716;9.212;2023-11-21T14:46:01;10.80;1.00
24224;DHT22;12359;49.716;9.212;2023-11-21T14:48:29;10.70;1.00
24224;DHT22;12359;49.716;9.212;2023-11-21T14:51:13;10.70;1.00
24224;DHT22;12359;49.716;9.212;2023-11-21T14:53:39;10.70;1.00
24224;DHT22;12359;49.716;9.212;2023-11-21T14:56:22;10.60;1.00
24224;DHT22;12359;49.716;9.212;2023-11-21T14:58:59;10.60;1.00
24224;DHT22;12359;49.716;9.212;2023-11-21T15:01:42;10.50;1.00
24224;DHT22;12359;49.716;9.212;2023-11-21T15:04:19;10.50;1.00
24224;DHT22;12359;49.716;9.212;2023-11-21T15:07:05;10.50;1.00
24224;DHT22;12359;49.716;9.212;2023-11-21T15:09:30;10.40;1.00
24224;DHT22;12359;49.716;9.212;2023-11-21T15:12:00;10.40;1.00
24224;DHT22;12359;49.716;9.212;2023-11-21T15:14:38;10.40;1.00
24224;DHT22;12359;49.716;9.212;2023-11-21T15:17:03;10.30;1.00
24224;DHT22;12359;49.716;9.212;2023-11-21T15:19:31;10.30;1.00
24224;DHT22;12359;49.716;9.212;2023-11-21T15:21:57;10.20;1.00
24224;DHT22;12359;49.716;9.212;2023-11-21T15:24:23;10.20;1.00
24224;DHT22;12359;49.716;9.212;2023-11-21T15:26:50;10.20;1.00
24224;DHT22;12359;49.716;9.212;2023-11-21T15:29:16;10.20;1.00
24224;DHT22;12359;49.716;9.212;2023-11-21T15:31:42;10.20;1.00
24224;DHT22;12359;49.716;9.212;2023-11-21T15:34:13;10.20;1.00
24224;DHT22;12359;49.716;9.212;2023-11-21T15:36:38;10.20;1.00
24224;DHT22;12359;49.716;9.212;2023-11-21T15:39:04;10.10;1.90
24224;DHT22;12359;49.716;9.212;2023-11-21T15:41:30;10.10;1.10
24224;DHT22;12359;49.716;9.212;2023-11-21T15:43:56;10.00;1.00
24224;DHT22;12359;49.716;9.212;2023-11-21T15:46:22;10.00;1.60
24224;DHT22;12359;49.716;9.212;2023-11-21T15:48:48;10.00;1.00
24224;DHT22;12359;49.716;9.212;2023-11-21T15:51:20;10.00;1.00
24224;DHT22;12359;49.716;9.212;2023-11-21T15:53:46;10.00;1.00
24224;DHT22;12359;49.716;9.212;2023-11-21T15:56:11;10.00;1.00
24224;DHT22;12359;49.716;9.212;2023-11-21T15:58:41;10.00;1.00